createdAt,value
2017-08-26T00:00:50.920Z,5.7
2017-08-26T00:01:53.340Z,5.7
2017-08-26T00:02:56.112Z,5.7
2017-08-26T00:03:58.542Z,5.7
2017-08-26T00:05:00.971Z,5.7
2017-08-26T00:06:03.394Z,5.8
2017-08-26T00:07:05.819Z,5.7
2017-08-26T00:08:08.237Z,5.7
2017-08-26T00:09:10.923Z,5.7
2017-08-26T00:10:13.344Z,5.7
2017-08-26T00:11:15.768Z,5.7
2017-08-26T00:12:18.193Z,5.7
2017-08-26T00:13:20.957Z,5.7
2017-08-26T00:14:23.378Z,5.7
2017-08-26T00:15:26.147Z,5.7
2017-08-26T00:16:28.578Z,5.6
2017-08-26T00:17:31.013Z,5.6
2017-08-26T00:18:33.574Z,5.7
2017-08-26T00:19:35.998Z,5.6
2017-08-26T00:20:38.759Z,5.6
2017-08-26T00:21:41.193Z,5.6
2017-08-26T00:22:43.950Z,5.6
2017-08-26T00:23:46.466Z,5.6
2017-08-26T00:24:48.897Z,5.6
2017-08-26T00:25:51.654Z,5.7
2017-08-26T00:26:54.081Z,5.6
2017-08-26T00:27:56.838Z,5.7
2017-08-26T00:28:59.269Z,5.6
2017-08-26T00:30:02.026Z,5.6
2017-08-26T00:31:04.458Z,5.6
2017-08-26T00:32:06.881Z,5.6
2017-08-26T00:33:09.331Z,5.6
2017-08-26T00:34:12.466Z,5.6
2017-08-26T00:35:14.894Z,5.6
2017-08-26T00:36:17.317Z,5.6
2017-08-26T00:37:19.737Z,5.6
2017-08-26T00:38:22.333Z,5.6
2017-08-26T00:39:24.758Z,5.6
2017-08-26T00:40:27.181Z,5.6
2017-08-26T00:41:29.606Z,5.6
2017-08-26T00:42:32.036Z,5.6
2017-08-26T00:43:34.598Z,5.6
2017-08-26T00:44:37.029Z,5.6
2017-08-26T00:45:39.447Z,5.7
2017-08-26T00:46:41.883Z,5.6
2017-08-26T00:47:44.306Z,5.6
2017-08-26T00:48:46.986Z,5.6
2017-08-26T00:49:49.413Z,5.7
2017-08-26T00:50:51.831Z,5.6
2017-08-26T00:51:54.602Z,5.6
2017-08-26T00:52:57.030Z,5.6
2017-08-26T00:53:59.459Z,5.6
2017-08-26T00:55:01.883Z,5.6
2017-08-26T00:56:04.315Z,5.5
2017-08-26T00:57:06.738Z,5.6
2017-08-26T00:58:09.168Z,5.6
2017-08-26T00:59:11.599Z,5.6
2017-08-26T01:00:14.019Z,5.6
2017-08-26T01:01:16.448Z,5.5
2017-08-26T01:02:18.867Z,5.5
2017-08-26T01:03:21.738Z,5.6
2017-08-26T01:04:24.162Z,5.6
2017-08-26T01:05:26.585Z,5.6
2017-08-26T01:06:29.009Z,5.6
2017-08-26T01:07:31.438Z,5.5
2017-08-26T01:08:33.989Z,5.5
2017-08-26T01:09:36.416Z,5.6
2017-08-26T01:10:38.844Z,5.6
2017-08-26T01:11:41.274Z,5.6
2017-08-26T01:12:43.693Z,5.6
2017-08-26T01:13:46.320Z,5.6
2017-08-26T01:14:48.738Z,5.6
2017-08-26T01:15:51.163Z,5.6
2017-08-26T01:16:53.592Z,5.5
2017-08-26T01:17:56.012Z,5.5
2017-08-26T01:18:58.514Z,5.5
2017-08-26T01:20:01.635Z,5.6
2017-08-26T01:21:04.057Z,5.5
2017-08-26T01:22:07.170Z,5.6
2017-08-26T01:23:09.592Z,5.6
2017-08-26T01:24:12.016Z,5.6
2017-08-26T01:25:14.445Z,5.6
2017-08-26T01:26:17.214Z,5.6
2017-08-26T01:27:19.632Z,5.5
2017-08-26T01:28:22.175Z,5.6
2017-08-26T01:29:24.595Z,5.6
2017-08-26T01:30:27.359Z,5.6
2017-08-26T01:31:29.788Z,5.6
2017-08-26T01:32:32.216Z,5.6
2017-08-26T01:33:35.083Z,5.7
2017-08-26T01:34:37.510Z,5.5
2017-08-26T01:35:39.931Z,5.6
2017-08-26T01:36:42.353Z,5.6
2017-08-26T01:37:44.782Z,5.6
2017-08-26T01:38:47.944Z,5.6
2017-08-26T01:39:50.357Z,5.6
2017-08-26T01:40:52.788Z,5.5
2017-08-26T01:41:55.216Z,5.6
2017-08-26T01:42:57.642Z,5.5
2017-08-26T01:44:00.065Z,5.6
2017-08-26T01:45:02.831Z,5.6
2017-08-26T01:46:05.253Z,5.6
2017-08-26T01:47:07.688Z,5.6
2017-08-26T01:48:10.114Z,5.6
2017-08-26T01:49:12.753Z,5.6
2017-08-26T01:50:15.183Z,5.6
2017-08-26T01:51:17.611Z,5.6
2017-08-26T01:52:20.032Z,5.6
2017-08-26T01:53:22.460Z,5.6
2017-08-26T01:54:24.882Z,5.6
2017-08-26T01:55:27.313Z,5.6
2017-08-26T01:56:29.748Z,5.6
2017-08-26T01:57:32.181Z,5.5
2017-08-26T01:58:34.607Z,5.6
2017-08-26T01:59:37.030Z,5.6
2017-08-26T02:00:39.798Z,5.5
2017-08-26T02:01:42.238Z,5.5
2017-08-26T02:02:44.758Z,5.6
2017-08-26T02:03:47.518Z,5.5
2017-08-26T02:04:50.290Z,5.6
2017-08-26T02:05:52.717Z,5.5
2017-08-26T02:06:55.165Z,5.6
2017-08-26T02:07:57.591Z,5.6
2017-08-26T02:09:00.015Z,5.6
2017-08-26T02:10:02.439Z,5.5
2017-08-26T02:11:04.866Z,5.5
2017-08-26T02:12:07.285Z,5.5
2017-08-26T02:13:09.725Z,5.5
2017-08-26T02:14:12.166Z,5.6
2017-08-26T02:15:14.589Z,5.5
2017-08-26T02:16:17.010Z,5.5
2017-08-26T02:17:19.444Z,5.6
2017-08-26T02:18:21.869Z,5.6
2017-08-26T02:19:24.640Z,5.5
2017-08-26T02:20:27.057Z,5.6
2017-08-26T02:21:29.488Z,5.5
2017-08-26T02:22:31.917Z,5.5
2017-08-26T02:23:34.459Z,5.6
2017-08-26T02:24:36.886Z,5.5
2017-08-26T02:25:39.315Z,5.6
2017-08-26T02:26:41.739Z,5.5
2017-08-26T02:27:44.170Z,5.5
2017-08-26T02:28:46.595Z,5.6
2017-08-26T02:29:49.022Z,5.5
2017-08-26T02:30:51.776Z,5.5
2017-08-26T02:31:54.218Z,5.5
2017-08-26T02:32:56.653Z,5.5
2017-08-26T02:33:59.081Z,5.5
2017-08-26T02:35:01.838Z,5.5
2017-08-26T02:36:04.268Z,5.5
2017-08-26T02:37:06.699Z,5.5
2017-08-26T02:38:09.129Z,5.5
2017-08-26T02:39:11.555Z,5.5
2017-08-26T02:40:13.980Z,5.5
2017-08-26T02:41:16.407Z,5.5
2017-08-26T02:42:18.852Z,5.5
2017-08-26T02:43:21.614Z,5.5
2017-08-26T02:44:24.047Z,5.5
2017-08-26T02:45:26.478Z,5.5
2017-08-26T02:46:28.899Z,5.5
2017-08-26T02:47:31.324Z,5.5
2017-08-26T02:48:33.754Z,5.5
2017-08-26T02:49:36.181Z,5.5
2017-08-26T02:50:38.602Z,5.5
2017-08-26T02:51:41.031Z,5.5
2017-08-26T02:52:43.799Z,5.5
2017-08-26T02:53:46.227Z,5.5
2017-08-26T02:54:48.663Z,5.5
2017-08-26T02:55:51.085Z,5.5
2017-08-26T02:56:53.515Z,5.5
2017-08-26T02:57:55.949Z,5.5
2017-08-26T02:58:58.380Z,5.5
2017-08-26T03:00:00.799Z,5.5
2017-08-26T03:01:03.228Z,5.5
2017-08-26T03:02:05.655Z,5.5
2017-08-26T03:03:08.080Z,5.5
2017-08-26T03:04:10.520Z,5.5
2017-08-26T03:05:12.960Z,5.5
2017-08-26T03:06:15.386Z,5.6
2017-08-26T03:07:17.814Z,5.5
2017-08-26T03:08:20.244Z,5.5
2017-08-26T03:09:22.667Z,5.5
2017-08-26T03:10:25.440Z,5.5
2017-08-26T03:11:27.888Z,5.6
2017-08-26T03:12:30.652Z,5.5
2017-08-26T03:13:33.077Z,5.5
2017-08-26T03:14:35.505Z,5.5
2017-08-26T03:15:37.927Z,5.6
2017-08-26T03:16:40.363Z,5.5
2017-08-26T03:17:42.785Z,5.5
2017-08-26T03:18:45.213Z,5.5
2017-08-26T03:19:47.643Z,5.5
2017-08-26T03:20:50.079Z,5.5
2017-08-26T03:21:52.508Z,5.5
2017-08-26T03:22:55.971Z,5.4
2017-08-26T03:23:58.396Z,5.5
2017-08-26T03:25:00.831Z,5.5
2017-08-26T03:26:03.263Z,5.5
2017-08-26T03:27:05.688Z,5.5
2017-08-26T03:28:08.464Z,5.5
2017-08-26T03:29:10.892Z,5.5
2017-08-26T03:30:13.322Z,5.5
2017-08-26T03:31:15.754Z,5.5
2017-08-26T03:32:18.180Z,5.5
2017-08-26T03:33:20.605Z,5.5
2017-08-26T03:34:23.030Z,5.5
2017-08-26T03:35:25.463Z,5.5
2017-08-26T03:36:27.885Z,5.5
2017-08-26T03:37:30.311Z,5.5
2017-08-26T03:38:32.739Z,5.5
2017-08-26T03:39:35.160Z,5.5
2017-08-26T03:40:37.616Z,5.5
2017-08-26T03:41:40.045Z,5.5
2017-08-26T03:42:42.473Z,5.4
2017-08-26T03:43:44.899Z,5.4
2017-08-26T03:44:47.323Z,5.5
2017-08-26T03:45:49.741Z,5.5
2017-08-26T03:46:52.874Z,5.5
2017-08-26T03:47:55.296Z,5.5
2017-08-26T03:48:57.722Z,5.4
2017-08-26T03:50:00.147Z,5.5
2017-08-26T03:51:02.574Z,5.4
2017-08-26T03:52:04.994Z,5.5
2017-08-26T03:53:07.422Z,5.5
2017-08-26T03:54:09.843Z,5.5
2017-08-26T03:55:12.272Z,5.5
2017-08-26T03:56:15.040Z,5.4
2017-08-26T03:57:17.461Z,5.5
2017-08-26T03:58:19.889Z,5.5
2017-08-26T03:59:23.007Z,5.4
2017-08-26T04:00:25.426Z,5.5
2017-08-26T04:01:27.853Z,5.4
2017-08-26T04:02:30.625Z,5.5
2017-08-26T04:03:33.044Z,5.4
2017-08-26T04:04:35.469Z,5.4
2017-08-26T04:05:37.891Z,5.4
2017-08-26T04:06:40.313Z,5.5
2017-08-26T04:07:42.736Z,5.4
2017-08-26T04:08:45.159Z,5.4
2017-08-26T04:09:47.590Z,5.5
2017-08-26T04:10:50.012Z,5.4
2017-08-26T04:11:52.432Z,5.5
2017-08-26T04:12:54.858Z,5.4
2017-08-26T04:13:57.619Z,5.5
2017-08-26T04:15:00.390Z,5.5
2017-08-26T04:16:02.821Z,5.4
2017-08-26T04:17:05.241Z,5.4
2017-08-26T04:18:07.670Z,5.5
2017-08-26T04:19:10.102Z,5.5
2017-08-26T04:20:12.525Z,5.5
2017-08-26T04:21:14.955Z,5.4
2017-08-26T04:22:17.374Z,5.4
2017-08-26T04:23:19.790Z,5.4
2017-08-26T04:24:22.225Z,5.4
2017-08-26T04:25:24.647Z,5.4
2017-08-26T04:26:27.064Z,5.4
2017-08-26T04:27:29.530Z,5.4
2017-08-26T04:28:32.011Z,5.4
2017-08-26T04:29:34.489Z,5.5
2017-08-26T04:30:36.953Z,5.5
2017-08-26T04:31:39.760Z,5.5
2017-08-26T04:32:42.219Z,5.5
2017-08-26T04:33:44.679Z,5.5
2017-08-26T04:34:47.141Z,5.5
2017-08-26T04:35:49.976Z,5.5
2017-08-26T04:36:52.438Z,5.4
2017-08-26T04:37:54.895Z,5.5
2017-08-26T04:38:57.359Z,5.5
2017-08-26T04:39:59.817Z,5.5
2017-08-26T04:41:02.264Z,5.4
2017-08-26T04:42:04.734Z,5.5
2017-08-26T04:43:07.202Z,5.5
2017-08-26T04:44:10.012Z,5.5
2017-08-26T04:45:12.503Z,5.4
2017-08-26T04:46:14.965Z,5.5
2017-08-26T04:47:17.434Z,5.5
2017-08-26T04:48:19.905Z,5.4
2017-08-26T04:49:22.368Z,5.5
2017-08-26T04:50:24.832Z,5.5
2017-08-26T04:51:27.309Z,5.4
2017-08-26T04:52:29.780Z,5.5
2017-08-26T04:53:32.247Z,5.4
2017-08-26T04:54:34.714Z,5.5
2017-08-26T04:55:37.192Z,5.4
2017-08-26T04:56:39.664Z,5.4
2017-08-26T04:57:42.135Z,5.5
2017-08-26T04:58:44.593Z,5.4
2017-08-26T04:59:47.064Z,5.4
2017-08-26T05:00:49.522Z,5.5
2017-08-26T05:01:51.980Z,5.5
2017-08-26T05:02:54.593Z,5.5
2017-08-26T05:03:57.411Z,5.4
2017-08-26T05:04:59.864Z,5.4
2017-08-26T05:06:02.664Z,5.4
2017-08-26T05:07:05.135Z,5.5
2017-08-26T05:08:07.589Z,5.4
2017-08-26T05:09:10.040Z,5.4
2017-08-26T05:10:12.507Z,5.5
2017-08-26T05:11:15.789Z,5.5
2017-08-26T05:12:18.599Z,5.4
2017-08-26T05:13:21.060Z,5.6
2017-08-26T05:14:23.515Z,5.5
2017-08-26T05:15:25.982Z,5.4
2017-08-26T05:16:28.449Z,5.5
2017-08-26T05:17:30.900Z,5.5
2017-08-26T05:18:33.372Z,5.5
2017-08-26T05:19:35.838Z,5.5
2017-08-26T05:20:38.515Z,5.6
2017-08-26T05:21:40.987Z,5.5
2017-08-26T05:22:43.459Z,5.5
2017-08-26T05:23:45.904Z,5.5
2017-08-26T05:24:48.371Z,5.5
2017-08-26T05:25:50.835Z,5.5
2017-08-26T05:26:53.650Z,5.5
2017-08-26T05:27:56.115Z,5.5
2017-08-26T05:28:58.916Z,5.6
2017-08-26T05:30:01.373Z,5.5
2017-08-26T05:31:03.850Z,5.5
2017-08-26T05:32:06.459Z,5.5
2017-08-26T05:33:09.277Z,5.6
2017-08-26T05:34:11.747Z,5.5
2017-08-26T05:35:14.203Z,5.5
2017-08-26T05:36:16.665Z,5.5
2017-08-26T05:37:19.468Z,5.6
2017-08-26T05:38:21.928Z,5.6
2017-08-26T05:39:24.449Z,5.6
2017-08-26T05:40:26.906Z,5.5
2017-08-26T05:41:29.744Z,5.5
2017-08-26T05:42:32.206Z,5.5
2017-08-26T05:43:35.126Z,5.6
2017-08-26T05:44:37.589Z,5.5
2017-08-26T05:45:40.068Z,5.6
2017-08-26T05:46:42.870Z,5.6
2017-08-26T05:47:45.505Z,5.6
2017-08-26T05:48:47.963Z,5.6
2017-08-26T05:49:50.786Z,5.5
2017-08-26T05:50:53.252Z,5.6
2017-08-26T05:51:55.716Z,5.6
2017-08-26T05:52:58.176Z,5.6
2017-08-26T05:54:00.646Z,5.6
2017-08-26T05:55:03.100Z,5.6
2017-08-26T05:56:05.558Z,5.6
2017-08-26T05:57:08.020Z,5.6
2017-08-26T05:58:10.824Z,5.6
2017-08-26T05:59:13.287Z,5.7
2017-08-26T06:00:16.105Z,5.6
2017-08-26T06:01:18.569Z,5.6
2017-08-26T06:02:21.033Z,5.6
2017-08-26T06:03:23.499Z,5.7
2017-08-26T06:04:26.309Z,5.7
2017-08-26T06:05:28.775Z,5.7
2017-08-26T06:06:31.593Z,5.6
2017-08-26T06:07:34.152Z,5.7
2017-08-26T06:08:36.611Z,5.7
2017-08-26T06:09:39.379Z,5.7
2017-08-26T06:10:42.200Z,5.7
2017-08-26T06:11:44.664Z,5.7
2017-08-26T06:12:47.132Z,5.7
2017-08-26T06:13:49.595Z,5.7
2017-08-26T06:14:52.045Z,5.7
2017-08-26T06:15:54.521Z,5.7
2017-08-26T06:16:56.990Z,5.8
2017-08-26T06:17:59.789Z,5.7
2017-08-26T06:19:02.350Z,5.7
2017-08-26T06:20:04.863Z,5.8
2017-08-26T06:21:07.323Z,5.8
2017-08-26T06:22:09.792Z,5.8
2017-08-26T06:23:12.247Z,5.8
2017-08-26T06:24:14.710Z,5.8
2017-08-26T06:25:17.180Z,5.8
2017-08-26T06:26:19.728Z,5.8
2017-08-26T06:27:22.191Z,5.8
2017-08-26T06:28:24.820Z,5.8
2017-08-26T06:29:27.289Z,5.9
2017-08-26T06:30:29.765Z,5.8
2017-08-26T06:31:32.236Z,5.8
2017-08-26T06:32:34.699Z,5.8
2017-08-26T06:33:37.160Z,5.9
2017-08-26T06:34:39.629Z,5.8
2017-08-26T06:35:42.098Z,5.9
2017-08-26T06:36:44.915Z,5.8
2017-08-26T06:37:47.378Z,5.9
2017-08-26T06:38:49.855Z,5.9
2017-08-26T06:39:52.502Z,5.9
2017-08-26T06:40:54.989Z,5.9
2017-08-26T06:41:57.467Z,6
2017-08-26T06:42:59.938Z,6
2017-08-26T06:44:02.396Z,6
2017-08-26T06:45:04.863Z,6
2017-08-26T06:46:07.325Z,6
2017-08-26T06:47:09.896Z,6
2017-08-26T06:48:12.365Z,6
2017-08-26T06:49:15.064Z,6
2017-08-26T06:50:17.534Z,6
2017-08-26T06:51:20.001Z,6
2017-08-26T06:52:22.465Z,6.1
2017-08-26T06:53:24.933Z,6.1
2017-08-26T06:54:27.739Z,6.1
2017-08-26T06:55:30.208Z,6.1
2017-08-26T06:56:32.682Z,6.1
2017-08-26T06:57:35.155Z,6.1
2017-08-26T06:58:37.770Z,6.2
2017-08-26T06:59:40.603Z,6.2
2017-08-26T07:00:43.070Z,6.2
2017-08-26T07:01:45.548Z,6.2
2017-08-26T07:02:48.011Z,6.2
2017-08-26T07:03:50.468Z,6.2
2017-08-26T07:04:52.946Z,6.2
2017-08-26T07:05:55.405Z,6.1
2017-08-26T07:06:57.878Z,6.2
2017-08-26T07:08:00.350Z,6.2
2017-08-26T07:09:02.813Z,6.2
2017-08-26T07:10:05.285Z,6.2
2017-08-26T07:11:07.920Z,6.2
2017-08-26T07:12:10.384Z,6.2
2017-08-26T07:13:51.184Z,6.2
2017-08-26T07:14:53.942Z,6.2
2017-08-26T07:15:56.348Z,6.2
2017-08-26T07:16:58.848Z,6.3
2017-08-26T07:18:01.267Z,6.2
2017-08-26T07:19:03.678Z,6.3
2017-08-26T07:20:06.083Z,6.3
2017-08-26T07:21:08.495Z,6.3
2017-08-26T07:22:10.900Z,6.2
2017-08-26T07:23:13.313Z,6.3
2017-08-26T07:24:15.727Z,6.3
2017-08-26T07:25:18.139Z,6.3
2017-08-26T07:26:20.544Z,6.3
2017-08-26T07:27:23.313Z,6.3
2017-08-26T07:28:25.709Z,6.3
2017-08-26T07:29:28.127Z,6.3
2017-08-26T07:30:30.868Z,6.3
2017-08-26T07:31:33.270Z,6.3
2017-08-26T07:32:35.684Z,6.3
2017-08-26T07:33:38.092Z,6.3
2017-08-26T07:34:40.504Z,6.3
2017-08-26T07:35:42.924Z,6.3
2017-08-26T07:36:45.325Z,6.3
2017-08-26T07:37:47.742Z,6.3
2017-08-26T07:38:50.152Z,6.3
2017-08-26T07:39:52.557Z,6.3
2017-08-26T07:40:55.313Z,6.3
2017-08-26T07:41:57.726Z,6.4
2017-08-26T07:43:00.142Z,6.4
2017-08-26T07:44:03.255Z,6.4
2017-08-26T07:45:05.666Z,6.3
2017-08-26T07:46:08.423Z,6.4
2017-08-26T07:47:10.836Z,6.3
2017-08-26T07:48:13.245Z,6.4
2017-08-26T07:49:15.652Z,6.4
2017-08-26T07:50:18.403Z,6.4
2017-08-26T07:51:20.802Z,6.4
2017-08-26T07:52:23.221Z,6.4
2017-08-26T07:53:57.779Z,6.4
2017-08-26T07:55:00.204Z,6.5
2017-08-26T07:56:02.644Z,6.4
2017-08-26T07:57:05.074Z,6.4
2017-08-26T07:58:07.512Z,6.5
2017-08-26T07:59:09.950Z,6.4
2017-08-26T08:00:12.379Z,6.4
2017-08-26T08:01:14.817Z,6.4
2017-08-26T08:02:17.254Z,6.5
2017-08-26T08:03:19.683Z,6.5
2017-08-26T08:04:22.113Z,6.5
2017-08-26T08:05:24.548Z,6.5
2017-08-26T08:06:26.980Z,6.5
2017-08-26T08:07:29.416Z,6.5
2017-08-26T08:08:31.844Z,6.5
2017-08-26T08:09:34.282Z,6.5
2017-08-26T08:10:36.725Z,6.4
2017-08-26T08:11:39.495Z,6.5
2017-08-26T08:12:41.932Z,6.5
2017-08-26T08:13:44.717Z,6.5
2017-08-26T08:14:47.157Z,6.6
2017-08-26T08:15:49.591Z,6.5
2017-08-26T08:16:52.028Z,6.5
2017-08-26T08:17:54.462Z,6.5
2017-08-26T08:18:56.900Z,6.5
2017-08-26T08:19:59.338Z,6.6
2017-08-26T08:21:01.768Z,6.6
2017-08-26T08:22:04.196Z,6.5
2017-08-26T08:23:06.636Z,6.5
2017-08-26T08:24:09.071Z,6.6
2017-08-26T08:25:11.510Z,6.6
2017-08-26T08:26:13.937Z,6.6
2017-08-26T08:27:16.381Z,6.6
2017-08-26T08:28:18.818Z,6.7
2017-08-26T08:29:21.264Z,6.6
2017-08-26T08:30:23.699Z,6.6
2017-08-26T08:31:26.132Z,6.6
2017-08-26T08:32:28.565Z,6.6
2017-08-26T08:33:31.005Z,6.6
2017-08-26T08:34:33.436Z,6.6
2017-08-26T08:35:35.867Z,6.6
2017-08-26T08:36:38.311Z,6.6
2017-08-26T08:37:41.087Z,6.6
2017-08-26T08:38:43.523Z,6.6
2017-08-26T08:39:45.955Z,6.6
2017-08-26T08:40:48.387Z,6.6
2017-08-26T08:41:50.820Z,6.7
2017-08-26T08:42:53.250Z,6.7
2017-08-26T08:43:55.688Z,6.7
2017-08-26T08:44:58.123Z,6.7
2017-08-26T08:46:00.560Z,6.7
2017-08-26T08:47:03.351Z,6.7
2017-08-26T08:48:05.787Z,6.7
2017-08-26T08:49:08.230Z,6.7
2017-08-26T08:50:10.664Z,6.7
2017-08-26T08:51:13.101Z,6.7
2017-08-26T08:52:15.539Z,6.7
2017-08-26T08:53:17.974Z,6.7
2017-08-26T08:54:20.406Z,6.7
2017-08-26T08:55:22.849Z,6.7
2017-08-26T08:56:25.286Z,6.7
2017-08-26T08:57:27.732Z,6.8
2017-08-26T08:58:30.170Z,6.8
2017-08-26T08:59:32.612Z,6.7
2017-08-26T09:00:35.045Z,6.7
2017-08-26T09:01:37.491Z,6.8
2017-08-26T09:02:39.923Z,6.8
2017-08-26T09:03:42.363Z,6.8
2017-08-26T09:04:44.808Z,6.8
2017-08-26T09:05:47.599Z,6.8
2017-08-26T09:06:50.044Z,6.8
2017-08-26T09:07:52.483Z,6.8
2017-08-26T09:08:54.919Z,6.8
2017-08-26T09:09:57.365Z,6.8
2017-08-26T09:10:59.790Z,6.8
2017-08-26T09:12:02.585Z,6.8
2017-08-26T09:13:05.024Z,6.8
2017-08-26T09:14:07.464Z,6.9
2017-08-26T09:15:09.899Z,6.8
2017-08-26T09:16:12.340Z,6.9
2017-08-26T09:17:14.780Z,6.8
2017-08-26T09:18:17.227Z,6.8
2017-08-26T09:19:20.006Z,6.9
2017-08-26T09:20:22.449Z,6.9
2017-08-26T09:21:25.224Z,6.8
2017-08-26T09:22:27.667Z,6.8
2017-08-26T09:23:30.102Z,6.8
2017-08-26T09:24:32.545Z,6.8
2017-08-26T09:25:34.986Z,6.9
2017-08-26T09:26:37.438Z,6.8
2017-08-26T09:27:39.877Z,7
2017-08-26T09:28:42.321Z,6.9
2017-08-26T09:29:44.760Z,6.9
2017-08-26T09:30:47.202Z,6.9
2017-08-26T09:31:49.641Z,6.9
2017-08-26T09:32:52.086Z,6.9
2017-08-26T09:33:54.523Z,7
2017-08-26T09:34:56.957Z,6.9
2017-08-26T09:35:59.742Z,6.9
2017-08-26T09:37:02.195Z,6.9
2017-08-26T09:38:04.634Z,6.9
2017-08-26T09:39:07.074Z,7
2017-08-26T09:40:09.517Z,6.9
2017-08-26T09:41:11.955Z,6.9
2017-08-26T09:42:14.401Z,6.9
2017-08-26T09:43:16.842Z,6.9
2017-08-26T09:44:19.619Z,6.9
2017-08-26T09:45:22.407Z,6.9
2017-08-26T09:46:24.855Z,7
2017-08-26T09:47:27.297Z,6.9
2017-08-26T09:48:29.744Z,6.9
2017-08-26T09:49:32.181Z,6.9
2017-08-26T09:50:34.617Z,6.9
2017-08-26T09:51:37.072Z,6.9
2017-08-26T09:52:39.512Z,7
2017-08-26T09:53:41.959Z,7
2017-08-26T09:54:44.405Z,6.9
2017-08-26T09:55:46.840Z,7
2017-08-26T09:56:49.288Z,6.9
2017-08-26T09:57:51.735Z,7
2017-08-26T09:58:54.166Z,6.9
2017-08-26T09:59:56.610Z,7
2017-08-26T10:00:59.058Z,7
2017-08-26T10:02:01.500Z,7
2017-08-26T10:03:03.949Z,7
2017-08-26T10:04:06.394Z,7
2017-08-26T10:05:08.851Z,7
2017-08-26T10:06:11.637Z,7
2017-08-26T10:07:14.077Z,7
2017-08-26T10:08:16.531Z,7.1
2017-08-26T10:09:18.969Z,7
2017-08-26T10:10:21.405Z,7
2017-08-26T10:11:23.854Z,7
2017-08-26T10:12:26.297Z,7
2017-08-26T10:13:29.086Z,7
2017-08-26T10:14:31.879Z,7
2017-08-26T10:15:34.666Z,7
2017-08-26T10:16:37.116Z,7
2017-08-26T10:17:39.562Z,7.1
2017-08-26T10:18:42.341Z,7.1
2017-08-26T10:19:44.791Z,7.1
2017-08-26T10:20:47.242Z,7.1
2017-08-26T10:21:50.044Z,7.2
2017-08-26T10:22:52.844Z,7.1
2017-08-26T10:23:55.292Z,7.2
2017-08-26T10:24:57.734Z,7.2
2017-08-26T10:26:00.186Z,7.2
2017-08-26T10:27:02.633Z,7.2
2017-08-26T10:28:05.417Z,7.2
2017-08-26T10:29:07.867Z,7.2
2017-08-26T10:30:10.308Z,7.2
2017-08-26T10:31:12.751Z,7.3
2017-08-26T10:32:15.212Z,7.2
2017-08-26T10:33:17.653Z,7.2
2017-08-26T10:34:20.086Z,7.2
2017-08-26T10:35:22.541Z,7.2
2017-08-26T10:36:24.991Z,7.2
2017-08-26T10:37:27.434Z,7.3
2017-08-26T10:38:29.872Z,7.2
2017-08-26T10:39:32.662Z,7.3
2017-08-26T10:40:35.106Z,7.2
2017-08-26T10:41:37.561Z,7.3
2017-08-26T10:42:40.007Z,7.3
2017-08-26T10:43:42.804Z,7.2
2017-08-26T10:44:45.235Z,7.3
2017-08-26T10:45:47.684Z,7.2
2017-08-26T10:46:50.125Z,7.3
2017-08-26T10:47:52.571Z,7.3
2017-08-26T10:48:55.013Z,7.3
2017-08-26T10:49:57.461Z,7.3
2017-08-26T10:50:59.912Z,7.3
2017-08-26T10:52:02.728Z,7.3
2017-08-26T10:53:05.525Z,7.3
2017-08-26T10:54:07.974Z,7.2
2017-08-26T10:55:10.421Z,7.3
2017-08-26T10:56:12.874Z,7.2
2017-08-26T10:57:15.319Z,7.3
2017-08-26T10:58:18.099Z,7.3
2017-08-26T10:59:20.887Z,7.2
2017-08-26T11:00:23.336Z,7.3
2017-08-26T11:01:26.128Z,7.3
2017-08-26T11:02:28.573Z,7.3
2017-08-26T11:03:31.016Z,7.3
2017-08-26T11:04:33.457Z,7.3
2017-08-26T11:05:35.907Z,7.3
2017-08-26T11:06:38.700Z,7.3
2017-08-26T11:07:41.142Z,7.3
2017-08-26T11:08:43.601Z,7.3
2017-08-26T11:09:46.045Z,7.3
2017-08-26T11:10:48.833Z,7.3
2017-08-26T11:11:51.287Z,7.3
2017-08-26T11:12:53.732Z,7.3
2017-08-26T11:13:56.184Z,7.3
2017-08-26T11:14:58.636Z,7.3
2017-08-26T11:16:01.077Z,7.3
2017-08-26T11:17:03.627Z,7.4
2017-08-26T11:18:06.080Z,7.4
2017-08-26T11:19:08.526Z,7.4
2017-08-26T11:20:10.975Z,7.4
2017-08-26T11:21:13.421Z,7.3
2017-08-26T11:22:15.858Z,7.4
2017-08-26T11:23:18.315Z,7.4
2017-08-26T11:24:20.763Z,7.4
2017-08-26T11:25:23.210Z,7.4
2017-08-26T11:26:25.663Z,7.4
2017-08-26T11:27:28.113Z,7.4
2017-08-26T11:28:30.905Z,7.4
2017-08-26T11:29:33.704Z,7.4
2017-08-26T11:30:36.516Z,7.4
2017-08-26T11:31:38.963Z,7.4
2017-08-26T11:32:41.413Z,7.4
2017-08-26T11:33:43.866Z,7.4
2017-08-26T11:34:46.315Z,7.4
2017-08-26T11:35:48.761Z,7.4
2017-08-26T11:36:51.558Z,7.4
2017-08-26T11:37:54.011Z,7.4
2017-08-26T11:38:56.462Z,7.4
2017-08-26T11:39:58.923Z,7.4
2017-08-26T11:41:01.357Z,7.5
2017-08-26T11:42:04.158Z,7.4
2017-08-26T11:43:06.609Z,7.4
2017-08-26T11:44:09.061Z,7.4
2017-08-26T11:45:11.504Z,7.4
2017-08-26T11:46:14.290Z,7.4
2017-08-26T11:47:16.735Z,7.5
2017-08-26T11:48:19.193Z,7.5
2017-08-26T11:49:21.640Z,7.5
2017-08-26T11:50:24.086Z,7.4
2017-08-26T11:51:26.532Z,7.5
2017-08-26T11:52:28.984Z,7.5
2017-08-26T11:53:31.430Z,7.5
2017-08-26T11:54:33.883Z,7.4
2017-08-26T11:55:36.328Z,7.5
2017-08-26T11:56:39.122Z,7.5
2017-08-26T11:57:41.580Z,7.5
2017-08-26T11:58:44.032Z,7.5
2017-08-26T11:59:46.480Z,7.5
2017-08-26T12:00:48.928Z,7.5
2017-08-26T12:01:51.379Z,7.5
2017-08-26T12:02:53.825Z,7.5
2017-08-26T12:03:56.276Z,7.5
2017-08-26T12:04:58.724Z,7.5
2017-08-26T12:06:01.180Z,7.5
2017-08-26T12:07:03.959Z,7.6
2017-08-26T12:08:06.410Z,7.5
2017-08-26T12:09:08.871Z,7.6
2017-08-26T12:10:11.325Z,7.6
2017-08-26T12:11:13.777Z,7.5
2017-08-26T12:12:16.582Z,7.5
2017-08-26T12:13:19.029Z,7.6
2017-08-26T12:14:21.498Z,7.6
2017-08-26T12:15:23.949Z,7.6
2017-08-26T12:16:26.398Z,7.6
2017-08-26T12:17:28.844Z,7.6
2017-08-26T12:18:31.597Z,7.6
2017-08-26T12:19:34.049Z,7.6
2017-08-26T12:20:36.493Z,7.6
2017-08-26T12:21:39.297Z,7.6
2017-08-26T12:22:42.095Z,7.6
2017-08-26T12:23:44.545Z,7.6
2017-08-26T12:24:46.997Z,7.6
2017-08-26T12:25:49.452Z,7.6
2017-08-26T12:26:52.254Z,7.6
2017-08-26T12:27:54.704Z,7.6
2017-08-26T12:28:57.159Z,7.6
2017-08-26T12:29:59.605Z,7.6
2017-08-26T12:31:02.049Z,7.6
2017-08-26T12:32:04.869Z,7.6
2017-08-26T12:33:07.313Z,7.6
2017-08-26T12:34:09.764Z,7.6
2017-08-26T12:35:12.369Z,7.6
2017-08-26T12:36:14.819Z,7.7
2017-08-26T12:37:17.634Z,7.7
2017-08-26T12:38:20.075Z,7.7
2017-08-26T12:39:22.526Z,7.7
2017-08-26T12:40:24.974Z,7.7
2017-08-26T12:41:27.425Z,7.8
2017-08-26T12:42:29.868Z,7.7
2017-08-26T12:43:32.320Z,7.8
2017-08-26T12:44:34.763Z,7.7
2017-08-26T12:45:37.213Z,7.8
2017-08-26T12:46:39.662Z,7.7
2017-08-26T12:47:42.108Z,7.7
2017-08-26T12:48:44.554Z,7.7
2017-08-26T12:49:47.007Z,7.7
2017-08-26T12:50:49.456Z,7.7
2017-08-26T12:51:51.911Z,7.7
2017-08-26T12:52:54.352Z,7.7
2017-08-26T12:53:56.809Z,7.7
2017-08-26T12:54:59.596Z,7.7
2017-08-26T12:56:02.050Z,7.7
2017-08-26T12:57:04.494Z,7.7
2017-08-26T12:58:06.937Z,7.7
2017-08-26T12:59:09.380Z,7.7
2017-08-26T13:00:11.834Z,7.7
2017-08-26T13:01:14.276Z,7.7
2017-08-26T13:02:16.722Z,7.8
2017-08-26T13:03:19.175Z,7.7
2017-08-26T13:04:21.629Z,7.8
2017-08-26T13:05:24.446Z,7.7
2017-08-26T13:06:26.890Z,7.7
2017-08-26T13:07:29.679Z,7.7
2017-08-26T13:08:32.146Z,7.7
2017-08-26T13:09:34.579Z,7.7
2017-08-26T13:10:37.027Z,7.7
2017-08-26T13:11:39.490Z,7.7
2017-08-26T13:12:41.912Z,7.7
2017-08-26T13:13:44.362Z,7.7
2017-08-26T13:14:46.815Z,7.7
2017-08-26T13:15:49.260Z,7.7
2017-08-26T13:16:51.715Z,7.8
2017-08-26T13:17:54.170Z,7.8
2017-08-26T13:18:56.615Z,7.7
2017-08-26T13:19:59.073Z,7.8
2017-08-26T13:21:01.509Z,7.8
2017-08-26T13:22:03.964Z,7.8
2017-08-26T13:23:06.417Z,7.8
2017-08-26T13:24:08.863Z,7.7
2017-08-26T13:25:11.306Z,7.7
2017-08-26T13:26:13.756Z,7.8
2017-08-26T13:27:16.545Z,7.8
2017-08-26T13:28:19.007Z,7.8
2017-08-26T13:29:21.459Z,7.8
2017-08-26T13:30:23.901Z,7.8
2017-08-26T13:31:26.354Z,7.8
2017-08-26T13:32:28.803Z,7.8
2017-08-26T13:33:31.250Z,7.8
2017-08-26T13:34:33.716Z,7.8
2017-08-26T13:35:36.171Z,7.8
2017-08-26T13:36:38.619Z,7.8
2017-08-26T13:37:41.064Z,7.8
2017-08-26T13:38:43.511Z,7.9
2017-08-26T13:39:45.966Z,7.9
2017-08-26T13:40:48.416Z,7.9
2017-08-26T13:41:50.875Z,7.9
2017-08-26T13:42:53.320Z,7.8
2017-08-26T13:43:55.777Z,7.9
2017-08-26T13:44:58.573Z,7.8
2017-08-26T13:46:01.019Z,7.8
2017-08-26T13:47:03.830Z,7.8
2017-08-26T13:48:06.274Z,7.8
2017-08-26T13:49:08.732Z,7.8
2017-08-26T13:50:11.178Z,7.8
2017-08-26T13:51:13.631Z,7.9
2017-08-26T13:52:16.425Z,7.8
2017-08-26T13:53:19.215Z,7.8
2017-08-26T13:54:21.678Z,7.8
2017-08-26T13:55:24.474Z,7.8
2017-08-26T13:56:26.930Z,7.7
2017-08-26T13:57:29.381Z,7.8
2017-08-26T13:58:31.841Z,7.8
2017-08-26T13:59:34.293Z,7.8
2017-08-26T14:00:36.749Z,7.8
2017-08-26T14:01:39.191Z,7.8
2017-08-26T14:02:41.649Z,7.8
2017-08-26T14:03:44.098Z,7.8
2017-08-26T14:04:46.841Z,7.8
2017-08-26T14:05:49.975Z,7.8
2017-08-26T14:06:52.423Z,7.8
2017-08-26T14:07:54.863Z,7.8
2017-08-26T14:08:57.327Z,7.8
2017-08-26T14:09:59.775Z,7.9
2017-08-26T14:11:02.221Z,7.9
2017-08-26T14:12:04.663Z,7.8
2017-08-26T14:13:07.110Z,7.8
2017-08-26T14:14:09.562Z,7.9
2017-08-26T14:15:12.014Z,7.8
2017-08-26T14:16:14.464Z,7.8
2017-08-26T14:17:16.917Z,7.8
2017-08-26T14:18:19.377Z,7.7
2017-08-26T14:19:21.822Z,7.8
2017-08-26T14:20:24.605Z,7.8
2017-08-26T14:21:27.396Z,7.8
2017-08-26T14:22:29.841Z,7.8
2017-08-26T14:23:32.290Z,7.8
2017-08-26T14:24:34.743Z,7.9